sensor_id;sensor_type;location;lat;lon;timestamp;pressure;altitude;pressure_sealevel;temperature;humidity
22582;BME280;47125;48.542;9.052;2023-04-07T00:09:55;96001.34;;;8.55;nan
22582;BME280;47125;48.542;9.052;2023-04-07T00:19:59;95990.75;;;8.49;nan
22582;BME280;47125;48.542;9.052;2023-04-07T00:30:01;95979.28;;;8.66;nan
22582;BME280;47125;48.542;9.052;2023-04-07T00:40:06;95960.81;;;8.53;nan
22582;BME280;47125;48.542;9.052;2023-04-07T00:50:09;95947.31;;;8.66;nan
22582;BME280;47125;48.542;9.052;2023-04-07T01:00:13;95939.63;;;8.76;nan
22582;BME280;47125;48.542;9.052;2023-04-07T01:10:18;95917.25;;;8.77;nan
22582;BME280;47125;48.542;9.052;2023-04-07T01:20:30;95910.41;;;8.70;nan
22582;BME280;47125;48.542;9.052;2023-04-07T01:30:37;95911.16;;;8.89;nan
22582;BME280;47125;48.542;9.052;2023-04-07T01:40:41;95902.38;;;8.88;nan
22582;BME280;47125;48.542;9.052;2023-04-07T01:50:46;95893.34;;;8.89;nan
22582;BME280;47125;48.542;9.052;2023-04-07T02:00:50;95888.25;;;8.99;nan
22582;BME280;47125;48.542;9.052;2023-04-07T02:10:54;95892.28;;;9.02;nan
22582;BME280;47125;48.542;9.052;2023-04-07T02:21:01;95879.91;;;8.96;nan
22582;BME280;47125;48.542;9.052;2023-04-07T02:31:07;95869.84;;;9.09;nan
22582;BME280;47125;48.542;9.052;2023-04-07T02:41:09;95868.78;;;8.99;nan
22582;BME280;47125;48.542;9.052;2023-04-07T02:51:13;95857.91;;;9.00;nan
22582;BME280;47125;48.542;9.052;2023-04-07T03:01:16;95846.44;;;9.00;nan
22582;BME280;47125;48.542;9.052;2023-04-07T03:11:20;95843.78;;;9.00;nan
22582;BME280;47125;48.542;9.052;2023-04-07T03:21:23;95831.03;;;9.02;nan
22582;BME280;47125;48.542;9.052;2023-04-07T03:31:27;95832.44;;;8.93;nan
22582;BME280;47125;48.542;9.052;2023-04-07T03:41:30;95819.25;;;8.98;nan
22582;BME280;47125;48.542;9.052;2023-04-07T03:51:34;95824.09;;;8.89;nan
22582;BME280;47125;48.542;9.052;2023-04-07T04:01:37;95814.94;;;8.97;nan
22582;BME280;47125;48.542;9.052;2023-04-07T04:11:40;95788.44;;;8.90;nan
22582;BME280;47125;48.542;9.052;2023-04-07T04:21:43;95787.88;;;8.88;nan
22582;BME280;47125;48.542;9.052;2023-04-07T04:31:47;95794.81;;;8.89;nan
22582;BME280;47125;48.542;9.052;2023-04-07T04:41:50;95793.19;;;8.88;nan
22582;BME280;47125;48.542;9.052;2023-04-07T04:51:53;95795.03;;;8.88;nan
22582;BME280;47125;48.542;9.052;2023-04-07T05:01:56;95793.06;;;8.83;nan
22582;BME280;47125;48.542;9.052;2023-04-07T05:12:00;95795.03;;;8.76;nan
22582;BME280;47125;48.542;9.052;2023-04-07T05:22:03;95801.63;;;8.85;nan
22582;BME280;47125;48.542;9.052;2023-04-07T05:32:07;95806.97;;;8.85;nan
22582;BME280;47125;48.542;9.052;2023-04-07T05:42:10;95813.78;;;8.81;nan
22582;BME280;47125;48.542;9.052;2023-04-07T05:52:14;95811.38;;;8.91;nan
22582;BME280;47125;48.542;9.052;2023-04-07T06:02:16;95805.34;;;8.96;nan
22582;BME280;47125;48.542;9.052;2023-04-07T06:12:20;95801.53;;;8.80;nan
22582;BME280;47125;48.542;9.052;2023-04-07T06:22:23;95800.94;;;8.78;nan
22582;BME280;47125;48.542;9.052;2023-04-07T06:32:27;95802.19;;;8.75;nan
22582;BME280;47125;48.542;9.052;2023-04-07T06:42:29;95805.34;;;8.96;nan
22582;BME280;47125;48.542;9.052;2023-04-07T06:52:33;95812.19;;;8.92;nan
22582;BME280;47125;48.542;9.052;2023-04-07T07:02:36;95813.31;;;9.07;nan
22582;BME280;47125;48.542;9.052;2023-04-07T07:12:40;95806.84;;;9.15;nan
22582;BME280;47125;48.542;9.052;2023-04-07T07:22:42;95809.25;;;9.16;nan
22582;BME280;47125;48.542;9.052;2023-04-07T07:32:46;95812.50;;;9.30;nan
22582;BME280;47125;48.542;9.052;2023-04-07T07:42:49;95817.38;;;9.33;nan
22582;BME280;47125;48.542;9.052;2023-04-07T07:52:53;95816.19;;;9.40;nan
22582;BME280;47125;48.542;9.052;2023-04-07T08:02:55;95824.72;;;9.66;nan
22582;BME280;47125;48.542;9.052;2023-04-07T08:12:59;95823.91;;;9.65;nan
22582;BME280;47125;48.542;9.052;2023-04-07T08:23:02;95832.50;;;9.67;nan
22582;BME280;47125;48.542;9.052;2023-04-07T08:33:06;95833.31;;;10.08;nan
22582;BME280;47125;48.542;9.052;2023-04-07T08:43:09;95837.03;;;10.18;nan
22582;BME280;47125;48.542;9.052;2023-04-07T08:53:13;95827.53;;;10.39;nan
22582;BME280;47125;48.542;9.052;2023-04-07T09:03:19;95836.06;;;10.69;nan
22582;BME280;47125;48.542;9.052;2023-04-07T09:13:24;95829.75;;;11.08;nan
22582;BME280;47125;48.542;9.052;2023-04-07T09:23:27;95836.44;;;11.44;nan
22582;BME280;47125;48.542;9.052;2023-04-07T09:33:32;95829.59;;;11.70;nan
22582;BME280;47125;48.542;9.052;2023-04-07T09:43:36;95833.66;;;11.94;nan
22582;BME280;47125;48.542;9.052;2023-04-07T09:53:46;95821.97;;;12.27;nan
22582;BME280;47125;48.542;9.052;2023-04-07T10:03:49;95823.22;;;13.05;nan
22582;BME280;47125;48.542;9.052;2023-04-07T10:13:54;95820.88;;;12.77;nan
22582;BME280;47125;48.542;9.052;2023-04-07T10:23:58;95824.19;;;12.62;nan
22582;BME280;47125;48.542;9.052;2023-04-07T10:34:07;95814.78;;;12.59;nan
22582;BME280;47125;48.542;9.052;2023-04-07T10:44:38;95820.06;;;12.49;nan
22582;BME280;47125;48.542;9.052;2023-04-07T10:54:34;95828.75;;;12.93;nan
22582;BME280;47125;48.542;9.052;2023-04-07T11:04:36;95837.78;;;12.82;nan
22582;BME280;47125;48.542;9.052;2023-04-07T11:14:40;95837.78;;;12.29;nan
22582;BME280;47125;48.542;9.052;2023-04-07T11:24:44;95839.69;;;11.85;nan
22582;BME280;47125;48.542;9.052;2023-04-07T11:34:48;95842.41;;;11.90;nan
22582;BME280;47125;48.542;9.052;2023-04-07T11:44:51;95866.50;;;11.18;nan
22582;BME280;47125;48.542;9.052;2023-04-07T11:54:54;95876.84;;;10.65;nan
22582;BME280;47125;48.542;9.052;2023-04-07T12:04:59;95888.94;;;10.39;nan
22582;BME280;47125;48.542;9.052;2023-04-07T12:15:03;95896.09;;;10.67;nan
22582;BME280;47125;48.542;9.052;2023-04-07T12:25:06;95902.50;;;10.37;nan
22582;BME280;47125;48.542;9.052;2023-04-07T12:35:10;95902.53;;;10.26;nan
22582;BME280;47125;48.542;9.052;2023-04-07T12:45:14;95892.78;;;10.60;nan
22582;BME280;47125;48.542;9.052;2023-04-07T12:55:18;95881.47;;;10.69;nan
22582;BME280;47125;48.542;9.052;2023-04-07T13:05:21;95878.22;;;10.67;nan
22582;BME280;47125;48.542;9.052;2023-04-07T13:15:25;95878.16;;;10.79;nan
22582;BME280;47125;48.542;9.052;2023-04-07T13:25:28;95883.50;;;10.79;nan
22582;BME280;47125;48.542;9.052;2023-04-07T13:35:32;95882.50;;;10.68;nan
22582;BME280;47125;48.542;9.052;2023-04-07T13:45:36;95886.72;;;10.36;nan
22582;BME280;47125;48.542;9.052;2023-04-07T13:55:40;95886.34;;;11.05;nan
22582;BME280;47125;48.542;9.052;2023-04-07T14:05:42;95886.44;;;11.27;nan
22582;BME280;47125;48.542;9.052;2023-04-07T14:15:46;95892.44;;;11.34;nan
22582;BME280;47125;48.542;9.052;2023-04-07T14:25:49;95889.66;;;11.46;nan
22582;BME280;47125;48.542;9.052;2023-04-07T14:35:53;95886.75;;;11.31;nan
22582;BME280;47125;48.542;9.052;2023-04-07T14:45:56;95884.97;;;11.53;nan
22582;BME280;47125;48.542;9.052;2023-04-07T14:56:01;95881.09;;;11.44;nan
22582;BME280;47125;48.542;9.052;2023-04-07T15:06:05;95891.63;;;11.50;nan
22582;BME280;47125;48.542;9.052;2023-04-07T15:16:10;95896.47;;;11.53;nan
22582;BME280;47125;48.542;9.052;2023-04-07T15:26:13;95901.13;;;11.63;nan
22582;BME280;47125;48.542;9.052;2023-04-07T15:36:17;95904.22;;;11.72;nan
22582;BME280;47125;48.542;9.052;2023-04-07T15:46:20;95914.75;;;11.78;nan
22582;BME280;47125;48.542;9.052;2023-04-07T15:56:23;95929.13;;;11.72;nan
22582;BME280;47125;48.542;9.052;2023-04-07T16:06:26;95932.75;;;11.66;nan
22582;BME280;47125;48.542;9.052;2023-04-07T16:16:30;95943.63;;;11.76;nan
22582;BME280;47125;48.542;9.052;2023-04-07T16:26:36;95954.34;;;11.76;nan
22582;BME280;47125;48.542;9.052;2023-04-07T16:36:39;95962.38;;;11.76;nan
22582;BME280;47125;48.542;9.052;2023-04-07T16:46:42;95975.41;;;11.73;nan
22582;BME280;47125;48.542;9.052;2023-04-07T16:56:46;95995.03;;;11.61;nan
22582;BME280;47125;48.542;9.052;2023-04-07T17:06:49;96000.28;;;11.56;nan
22582;BME280;47125;48.542;9.052;2023-04-07T17:16:53;96008.16;;;11.18;nan
22582;BME280;47125;48.542;9.052;2023-04-07T17:26:56;96015.53;;;10.83;nan
22582;BME280;47125;48.542;9.052;2023-04-07T17:36:59;96028.03;;;10.66;nan
22582;BME280;47125;48.542;9.052;2023-04-07T17:47:02;96024.03;;;10.80;nan
22582;BME280;47125;48.542;9.052;2023-04-07T17:57:06;96039.56;;;10.43;nan
22582;BME280;47125;48.542;9.052;2023-04-07T18:07:08;96055.69;;;10.25;nan
22582;BME280;47125;48.542;9.052;2023-04-07T18:17:14;96080.41;;;9.97;nan
22582;BME280;47125;48.542;9.052;2023-04-07T18:27:17;96087.59;;;9.96;nan
22582;BME280;47125;48.542;9.052;2023-04-07T18:37:25;96106.41;;;10.25;nan
22582;BME280;47125;48.542;9.052;2023-04-07T18:47:29;96124.78;;;10.33;nan
22582;BME280;47125;48.542;9.052;2023-04-07T18:57:33;96136.59;;;10.37;nan
22582;BME280;47125;48.542;9.052;2023-04-07T19:07:36;96148.56;;;10.34;nan
22582;BME280;47125;48.542;9.052;2023-04-07T19:17:39;96150.88;;;10.31;nan
22582;BME280;47125;48.542;9.052;2023-04-07T19:27:42;96157.13;;;10.13;nan
22582;BME280;47125;48.542;9.052;2023-04-07T19:37:46;96167.22;;;10.23;nan
22582;BME280;47125;48.542;9.052;2023-04-07T19:47:48;96178.00;;;10.16;nan
22582;BME280;47125;48.542;9.052;2023-04-07T19:57:53;96184.22;;;10.10;nan
22582;BME280;47125;48.542;9.052;2023-04-07T20:07:57;96182.16;;;10.12;nan
22582;BME280;47125;48.542;9.052;2023-04-07T20:18:02;96195.28;;;10.14;nan
22582;BME280;47125;48.542;9.052;2023-04-07T20:28:05;96191.19;;;10.11;nan
22582;BME280;47125;48.542;9.052;2023-04-07T20:38:08;96201.06;;;10.11;nan
22582;BME280;47125;48.542;9.052;2023-04-07T20:48:11;96205.38;;;10.12;nan
22582;BME280;47125;48.542;9.052;2023-04-07T20:58:17;96200.34;;;10.04;nan
22582;BME280;47125;48.542;9.052;2023-04-07T21:08:19;96202.59;;;9.88;nan
22582;BME280;47125;48.542;9.052;2023-04-07T21:18:25;96210.84;;;9.87;nan
22582;BME280;47125;48.542;9.052;2023-04-07T21:28:27;96212.81;;;9.91;nan
22582;BME280;47125;48.542;9.052;2023-04-07T21:38:31;96219.22;;;9.90;nan
22582;BME280;47125;48.542;9.052;2023-04-07T21:48:34;96202.03;;;9.86;nan
22582;BME280;47125;48.542;9.052;2023-04-07T21:58:38;96214.34;;;9.87;nan
22582;BME280;47125;48.542;9.052;2023-04-07T22:08:41;96207.69;;;9.78;nan
22582;BME280;47125;48.542;9.052;2023-04-07T22:18:56;96216.19;;;9.87;nan
22582;BME280;47125;48.542;9.052;2023-04-07T22:28:59;96215.34;;;9.75;nan
22582;BME280;47125;48.542;9.052;2023-04-07T22:39:03;96216.19;;;9.87;nan
22582;BME280;47125;48.542;9.052;2023-04-07T22:49:05;96220.94;;;9.85;nan
22582;BME280;47125;48.542;9.052;2023-04-07T22:59:09;96221.16;;;9.83;nan
22582;BME280;47125;48.542;9.052;2023-04-07T23:09:12;96232.16;;;9.75;nan
22582;BME280;47125;48.542;9.052;2023-04-07T23:19:16;96236.34;;;9.83;nan
22582;BME280;47125;48.542;9.052;2023-04-07T23:29:18;96240.84;;;9.82;nan
22582;BME280;47125;48.542;9.052;2023-04-07T23:39:22;96234.38;;;9.78;nan
22582;BME280;47125;48.542;9.052;2023-04-07T23:49:24;96231.94;;;9.88;nan
22582;BME280;47125;48.542;9.052;2023-04-07T23:59:29;96229.66;;;9.92;nan
